createdAt,value
2019-02-03T00:00:48.413Z,1.30
2019-02-03T00:03:18.398Z,1.30
2019-02-03T00:05:46.035Z,1.30
2019-02-03T00:08:13.682Z,1.30
2019-02-03T00:10:41.310Z,1.30
2019-02-03T00:13:09.872Z,1.30
2019-02-03T00:15:37.492Z,1.30
2019-02-03T00:18:05.402Z,1.40
2019-02-03T00:20:33.042Z,1.40
2019-02-03T00:23:00.666Z,1.30
2019-02-03T00:25:28.314Z,1.30
2019-02-03T00:27:55.942Z,1.20
2019-02-03T00:30:23.575Z,1.20
2019-02-03T00:32:52.579Z,1.20
2019-02-03T00:35:20.219Z,1.20
2019-02-03T00:37:47.855Z,1.20
2019-02-03T00:40:15.510Z,1.20
2019-02-03T00:42:43.211Z,1.20
2019-02-03T00:45:12.023Z,1.30
2019-02-03T00:47:40.130Z,1.30
2019-02-03T00:50:14.553Z,1.40
2019-02-03T00:52:43.080Z,1.40
2019-02-03T00:55:12.325Z,1.40
2019-02-03T00:57:39.971Z,1.30
2019-02-03T01:00:09.218Z,1.40
2019-02-03T01:02:37.826Z,1.40
2019-02-03T01:05:07.006Z,1.40
2019-02-03T01:07:34.714Z,1.40
2019-02-03T01:10:02.346Z,1.40
2019-02-03T01:12:32.642Z,1.50
2019-02-03T01:15:00.663Z,1.50
2019-02-03T01:17:28.291Z,1.50
2019-02-03T01:19:55.940Z,1.60
2019-02-03T01:22:30.386Z,1.60
2019-02-03T01:24:58.120Z,1.70
2019-02-03T01:27:25.743Z,1.80
2019-02-03T01:29:53.826Z,1.90
2019-02-03T01:32:21.471Z,1.90
2019-02-03T01:34:49.103Z,1.90
2019-02-03T01:37:16.742Z,1.90
2019-02-03T01:39:44.370Z,2.00
2019-02-03T01:42:12.023Z,2.10
2019-02-03T01:44:40.123Z,2.10
2019-02-03T01:47:07.771Z,2.00
2019-02-03T01:49:35.406Z,2.00
2019-02-03T01:52:03.052Z,2.00
2019-02-03T01:54:36.644Z,2.00
2019-02-03T01:57:04.283Z,2.00
2019-02-03T01:59:32.250Z,2.00
2019-02-03T02:02:00.010Z,2.00
2019-02-03T02:04:27.699Z,2.00
2019-02-03T02:06:55.366Z,2.00
2019-02-03T02:09:22.998Z,1.90
2019-02-03T02:11:50.635Z,1.90
2019-02-03T02:14:24.298Z,1.90
2019-02-03T02:16:51.947Z,1.90
2019-02-03T02:19:19.727Z,1.90
2019-02-03T02:21:47.354Z,1.90
2019-02-03T02:24:15.962Z,1.90
2019-02-03T02:26:43.593Z,2.00
2019-02-03T02:29:11.710Z,2.00
2019-02-03T02:31:39.334Z,2.00
2019-02-03T02:34:08.962Z,2.10
2019-02-03T02:36:36.595Z,2.00
2019-02-03T02:39:06.013Z,2.00
2019-02-03T02:41:33.644Z,2.00
2019-02-03T02:44:01.354Z,2.00
2019-02-03T02:46:28.997Z,2.00
2019-02-03T02:48:56.648Z,2.00
2019-02-03T02:51:24.275Z,2.00
2019-02-03T02:53:51.914Z,2.00
2019-02-03T02:56:19.550Z,2.00
2019-02-03T02:58:47.194Z,2.00
2019-02-03T03:01:15.116Z,2.00
2019-02-03T03:03:42.760Z,2.00
2019-02-03T03:06:10.388Z,2.00
2019-02-03T03:08:38.028Z,2.10
2019-02-03T03:11:05.725Z,2.10
2019-02-03T03:13:42.195Z,2.10
2019-02-03T03:16:09.828Z,2.10
2019-02-03T03:18:37.450Z,2.10
2019-02-03T03:21:05.090Z,2.10
2019-02-03T03:23:33.646Z,2.10
2019-02-03T03:26:01.286Z,2.10
2019-02-03T03:28:28.927Z,2.10
2019-02-03T03:30:56.631Z,2.10
2019-02-03T03:33:26.927Z,2.10
2019-02-03T03:35:54.576Z,2.10
2019-02-03T03:38:31.724Z,2.10
2019-02-03T03:40:51.562Z,2.10
2019-02-03T03:43:19.187Z,2.10
2019-02-03T03:45:46.835Z,2.10
2019-02-03T03:48:14.459Z,2.10
2019-02-03T03:50:42.098Z,2.10
2019-02-03T03:53:09.731Z,2.10
2019-02-03T03:55:37.370Z,2.10
2019-02-03T03:58:05.081Z,2.10
2019-02-03T04:00:33.190Z,2.10
2019-02-03T04:03:01.771Z,2.10
2019-02-03T04:05:29.408Z,2.10
2019-02-03T04:07:57.050Z,2.10
2019-02-03T04:10:24.690Z,2.10
2019-02-03T04:12:52.319Z,2.10
2019-02-03T04:15:20.827Z,2.10
2019-02-03T04:17:49.095Z,2.10
2019-02-03T04:20:21.032Z,2.10
2019-02-03T04:22:48.722Z,2.10
2019-02-03T04:25:16.355Z,2.10
2019-02-03T04:27:43.990Z,2.10
2019-02-03T04:30:16.297Z,2.10
2019-02-03T04:32:52.857Z,2.10
2019-02-03T04:35:20.487Z,2.00
2019-02-03T04:37:48.127Z,2.00
2019-02-03T04:40:16.626Z,2.00
2019-02-03T04:42:44.651Z,2.10
2019-02-03T04:45:13.553Z,2.10
2019-02-03T04:47:41.348Z,2.10
2019-02-03T04:50:10.422Z,2.00
2019-02-03T04:52:38.071Z,2.00
2019-02-03T04:55:07.235Z,2.00
2019-02-03T04:57:35.260Z,2.10
2019-02-03T05:00:03.474Z,2.10
2019-02-03T05:02:37.086Z,2.10
2019-02-03T05:05:05.187Z,2.10
2019-02-03T05:07:32.836Z,2.10
2019-02-03T05:10:00.467Z,2.00
2019-02-03T05:12:28.378Z,2.00
2019-02-03T05:14:56.015Z,2.00
2019-02-03T05:17:23.643Z,2.00
2019-02-03T05:19:51.292Z,2.00
2019-02-03T05:22:18.919Z,2.00
2019-02-03T05:24:46.571Z,2.00
2019-02-03T05:27:14.195Z,2.00
2019-02-03T05:29:41.835Z,2.00
2019-02-03T05:32:09.462Z,2.00
2019-02-03T05:34:37.168Z,2.00
2019-02-03T05:37:04.808Z,2.00
2019-02-03T05:39:32.446Z,2.00
2019-02-03T05:42:00.067Z,1.90
2019-02-03T05:44:28.093Z,2.00
2019-02-03T05:46:55.714Z,1.90
2019-02-03T05:49:23.354Z,1.90
2019-02-03T05:51:51.024Z,1.90
2019-02-03T05:54:18.730Z,1.90
2019-02-03T05:56:46.358Z,1.90
2019-02-03T05:59:14.178Z,1.90
2019-02-03T06:01:41.809Z,1.90
2019-02-03T06:04:09.446Z,1.90
2019-02-03T06:06:37.075Z,1.90
2019-02-03T06:09:06.088Z,1.80
2019-02-03T06:11:33.710Z,1.80
2019-02-03T06:14:01.358Z,1.80
2019-02-03T06:16:28.998Z,1.80
2019-02-03T06:18:56.639Z,1.80
2019-02-03T06:21:24.269Z,1.80
2019-02-03T06:23:52.287Z,1.80
2019-02-03T06:26:19.915Z,1.70
2019-02-03T06:28:47.577Z,1.70
2019-02-03T06:31:15.582Z,1.70
2019-02-03T06:33:43.282Z,1.70
2019-02-03T06:36:11.192Z,1.70
2019-02-03T06:38:38.825Z,1.70
2019-02-03T06:41:06.535Z,1.70
2019-02-03T06:43:34.166Z,1.70
2019-02-03T06:46:20.101Z,1.70
2019-02-03T06:48:47.726Z,1.80
2019-02-03T06:51:15.378Z,1.80
2019-02-03T06:53:47.047Z,1.70
2019-02-03T06:56:14.707Z,1.70
2019-02-03T06:58:42.343Z,1.70
2019-02-03T07:01:09.999Z,1.70
2019-02-03T07:03:41.878Z,1.70
2019-02-03T07:06:09.523Z,1.70
2019-02-03T07:08:37.150Z,1.70
2019-02-03T07:11:04.799Z,1.70
2019-02-03T07:13:32.435Z,1.70
2019-02-03T07:16:00.078Z,1.70
2019-02-03T07:18:27.710Z,1.70
2019-02-03T07:20:55.354Z,1.70
2019-02-03T07:23:22.982Z,1.70
2019-02-03T07:25:50.623Z,1.70
2019-02-03T07:28:18.629Z,1.80
2019-02-03T07:30:46.271Z,1.80
2019-02-03T07:33:13.908Z,1.70
2019-02-03T07:35:41.543Z,1.70
2019-02-03T07:38:10.743Z,1.70
2019-02-03T07:40:38.590Z,1.70
2019-02-03T07:43:10.611Z,1.70
2019-02-03T07:45:38.242Z,1.70
2019-02-03T07:48:05.878Z,1.80
2019-02-03T07:50:33.511Z,1.80
2019-02-03T07:53:01.151Z,1.70
2019-02-03T07:55:28.787Z,1.70
2019-02-03T07:57:56.428Z,1.70
2019-02-03T08:00:24.051Z,1.70
2019-02-03T08:02:51.690Z,1.70
2019-02-03T08:05:19.321Z,1.70
2019-02-03T08:07:46.959Z,1.70
2019-02-03T08:10:24.551Z,1.60
2019-02-03T08:12:45.616Z,1.70
2019-02-03T08:15:15.166Z,1.60
2019-02-03T08:17:42.811Z,1.60
2019-02-03T08:20:15.130Z,1.60
2019-02-03T08:22:42.844Z,1.60
2019-02-03T08:25:11.644Z,1.60
2019-02-03T08:27:39.283Z,1.70
2019-02-03T08:30:08.447Z,1.70
2019-02-03T08:32:38.089Z,1.70
2019-02-03T08:35:05.782Z,1.60
2019-02-03T08:37:33.422Z,1.60
2019-02-03T08:40:01.201Z,1.60
2019-02-03T08:42:28.876Z,1.70
2019-02-03T08:44:56.783Z,1.70
2019-02-03T08:47:24.423Z,1.60
2019-02-03T08:49:52.054Z,1.60
2019-02-03T08:52:19.766Z,1.70
2019-02-03T08:54:58.027Z,1.60
2019-02-03T08:57:16.783Z,1.60
2019-02-03T08:59:44.727Z,1.60
2019-02-03T09:02:12.354Z,1.70
2019-02-03T09:04:39.992Z,1.60
2019-02-03T09:07:07.619Z,1.70
2019-02-03T09:09:35.266Z,1.60
2019-02-03T09:12:02.892Z,1.70
2019-02-03T09:14:32.538Z,1.70
2019-02-03T09:17:00.235Z,1.70
2019-02-03T09:19:27.875Z,1.70
2019-02-03T09:21:55.511Z,1.70
2019-02-03T09:24:24.107Z,1.80
2019-02-03T09:26:51.735Z,1.70
2019-02-03T09:29:19.448Z,1.80
2019-02-03T09:31:47.391Z,1.90
2019-02-03T09:34:15.026Z,1.90
2019-02-03T09:36:42.676Z,1.90
2019-02-03T09:39:10.743Z,1.80
2019-02-03T09:41:38.378Z,1.80
2019-02-03T09:44:06.342Z,1.80
2019-02-03T09:46:33.976Z,1.80
2019-02-03T09:49:01.614Z,1.80
2019-02-03T09:51:29.255Z,1.70
2019-02-03T09:53:56.891Z,1.80
2019-02-03T09:56:24.535Z,1.80
2019-02-03T09:58:52.166Z,1.70
2019-02-03T10:01:19.803Z,1.70
2019-02-03T10:03:47.906Z,1.70
2019-02-03T10:06:15.548Z,1.80
2019-02-03T10:08:43.181Z,1.70
2019-02-03T10:11:12.317Z,1.70
2019-02-03T10:13:40.256Z,1.80
2019-02-03T10:16:07.907Z,1.70
2019-02-03T10:18:35.542Z,1.80
2019-02-03T10:21:03.182Z,1.80
2019-02-03T10:23:30.806Z,1.80
2019-02-03T10:25:58.451Z,1.80
2019-02-03T10:28:26.082Z,1.80
2019-02-03T10:30:53.722Z,1.80
2019-02-03T10:33:21.367Z,1.80
2019-02-03T10:35:49.219Z,1.80
2019-02-03T10:38:16.865Z,1.70
2019-02-03T10:40:44.600Z,1.80
2019-02-03T10:43:12.296Z,1.80
2019-02-03T10:45:40.110Z,1.80
2019-02-03T10:48:07.819Z,1.80
2019-02-03T10:50:37.153Z,1.80
2019-02-03T10:53:06.898Z,1.80
2019-02-03T10:55:34.530Z,1.80
2019-02-03T10:58:02.173Z,1.80
2019-02-03T11:00:33.827Z,1.80
2019-02-03T11:03:01.539Z,1.80
2019-02-03T11:05:30.708Z,1.80
2019-02-03T11:07:58.431Z,1.80
2019-02-03T11:10:27.028Z,1.80
2019-02-03T11:12:54.822Z,1.80
2019-02-03T11:15:22.623Z,1.80
2019-02-03T11:17:50.347Z,1.80
2019-02-03T11:20:25.274Z,1.80
2019-02-03T11:22:54.438Z,1.80
2019-02-03T11:25:23.319Z,1.80
2019-02-03T11:27:50.965Z,1.80
2019-02-03T11:30:25.806Z,1.80
2019-02-03T11:33:04.807Z,1.80
2019-02-03T11:35:23.253Z,1.80
2019-02-03T11:37:51.332Z,1.70
2019-02-03T11:40:20.499Z,1.80
2019-02-03T11:42:49.152Z,1.80
2019-02-03T11:45:21.174Z,1.80
2019-02-03T11:47:48.822Z,1.70
2019-02-03T11:50:18.234Z,1.80
2019-02-03T11:52:46.359Z,1.90
2019-02-03T11:55:14.062Z,1.80
2019-02-03T11:57:41.710Z,1.80
2019-02-03T12:02:42.277Z,1.80
2019-02-03T12:05:10.543Z,1.80
2019-02-03T12:07:38.662Z,1.80
2019-02-03T12:10:07.932Z,1.90
2019-02-03T12:12:37.509Z,1.90
2019-02-03T12:15:06.680Z,1.90
2019-02-03T12:17:34.318Z,1.90
2019-02-03T12:20:01.962Z,1.80
2019-02-03T12:22:31.527Z,1.70
2019-02-03T12:24:59.166Z,1.60
2019-02-03T12:27:26.801Z,1.60
2019-02-03T12:29:54.511Z,1.60
2019-02-03T12:32:22.144Z,1.60
2019-02-03T12:34:49.782Z,1.60
2019-02-03T12:37:17.411Z,1.60
2019-02-03T12:39:45.129Z,1.50
2019-02-03T12:42:13.606Z,1.60
2019-02-03T12:44:41.474Z,1.70
2019-02-03T12:47:09.126Z,1.60
2019-02-03T12:49:36.761Z,1.70
2019-02-03T12:52:04.574Z,1.60
2019-02-03T12:54:34.202Z,1.70
2019-02-03T12:57:01.848Z,1.70
2019-02-03T12:59:29.493Z,1.70
2019-02-03T13:01:57.127Z,1.80
2019-02-03T13:04:25.662Z,1.80
2019-02-03T13:06:53.743Z,1.80
2019-02-03T13:09:21.391Z,1.80
2019-02-03T13:11:49.015Z,1.90
2019-02-03T13:14:16.653Z,1.90
2019-02-03T13:16:44.297Z,1.90
2019-02-03T13:19:12.057Z,2.00
2019-02-03T13:21:39.707Z,2.00
2019-02-03T13:24:07.355Z,1.90
2019-02-03T13:26:34.989Z,1.90
2019-02-03T13:29:02.616Z,1.80
2019-02-03T13:31:30.263Z,1.80
2019-02-03T13:33:59.083Z,1.80
2019-02-03T13:36:26.940Z,1.70
2019-02-03T13:38:54.567Z,1.70
2019-02-03T13:41:22.215Z,1.60
2019-02-03T13:43:50.795Z,1.60
2019-02-03T13:46:18.440Z,1.70
2019-02-03T13:48:46.078Z,1.80
2019-02-03T13:51:13.718Z,1.80
2019-02-03T13:53:42.284Z,1.80
2019-02-03T13:56:09.988Z,1.70
2019-02-03T13:58:37.616Z,1.70
2019-02-03T14:01:05.429Z,1.70
2019-02-03T14:06:00.415Z,1.30
2019-02-03T14:08:28.042Z,1.60
2019-02-03T14:10:55.687Z,1.50
2019-02-03T14:13:23.386Z,1.40
2019-02-03T14:15:51.044Z,1.60
2019-02-03T14:18:18.674Z,1.60
2019-02-03T14:20:46.336Z,1.50
2019-02-03T14:23:14.351Z,1.50
2019-02-03T14:25:42.066Z,1.50
2019-02-03T14:28:09.767Z,1.50
2019-02-03T14:30:41.618Z,1.50
2019-02-03T14:33:09.456Z,1.50
2019-02-03T14:35:37.082Z,1.50
2019-02-03T14:38:05.277Z,1.50
2019-02-03T14:40:32.902Z,1.50
2019-02-03T14:43:02.077Z,1.50
2019-02-03T14:45:30.142Z,1.50
2019-02-03T14:47:57.793Z,1.50
2019-02-03T14:50:26.086Z,1.50
2019-02-03T14:52:56.126Z,1.50
2019-02-03T14:55:24.923Z,1.50
2019-02-03T14:57:52.562Z,1.50
2019-02-03T15:00:24.326Z,1.50
2019-02-03T15:02:51.982Z,1.60
2019-02-03T15:05:20.211Z,1.60
2019-02-03T15:07:47.939Z,1.50
2019-02-03T15:10:15.739Z,1.50
2019-02-03T15:12:43.384Z,1.50
2019-02-03T15:15:21.592Z,1.50
2019-02-03T15:17:49.289Z,1.50
2019-02-03T15:20:21.083Z,1.40
2019-02-03T15:22:48.726Z,1.40
2019-02-03T15:25:16.427Z,1.50
2019-02-03T15:27:44.138Z,1.40
2019-02-03T15:30:19.370Z,1.40
2019-02-03T15:32:49.095Z,1.50
2019-02-03T15:35:16.891Z,1.40
2019-02-03T15:37:44.518Z,1.40
2019-02-03T15:40:16.063Z,1.50
2019-02-03T15:42:44.622Z,1.40
2019-02-03T15:45:13.342Z,1.50
2019-02-03T15:47:40.970Z,1.50
2019-02-03T15:50:10.159Z,1.50
2019-02-03T15:52:38.763Z,1.50
2019-02-03T15:55:08.074Z,1.50
2019-02-03T15:57:35.719Z,1.50
2019-02-03T16:00:04.897Z,1.50
2019-02-03T16:02:33.311Z,1.50
2019-02-03T16:05:00.947Z,1.50
2019-02-03T16:07:28.570Z,1.60
2019-02-03T16:09:56.218Z,1.40
2019-02-03T16:12:24.763Z,1.40
2019-02-03T16:14:52.403Z,1.40
2019-02-03T16:17:20.034Z,1.50
2019-02-03T16:19:47.675Z,1.40
2019-02-03T16:22:15.318Z,1.40
2019-02-03T16:24:42.954Z,1.40
2019-02-03T16:27:10.589Z,1.40
2019-02-03T16:29:38.234Z,1.30
2019-02-03T16:32:05.879Z,1.40
2019-02-03T16:34:33.523Z,1.40
2019-02-03T16:37:01.147Z,1.40
2019-02-03T16:39:29.633Z,1.30
2019-02-03T16:41:57.602Z,1.40
2019-02-03T16:44:26.323Z,1.40
2019-02-03T16:46:53.952Z,1.40
2019-02-03T16:49:21.591Z,1.50
2019-02-03T16:51:49.731Z,1.50
2019-02-03T16:54:18.406Z,1.40
2019-02-03T16:56:46.139Z,1.50
2019-02-03T16:59:13.770Z,1.30
2019-02-03T17:01:41.500Z,1.40
2019-02-03T17:04:09.162Z,1.40
2019-02-03T17:06:36.862Z,1.40
2019-02-03T17:09:06.069Z,1.40
2019-02-03T17:11:33.795Z,1.40
2019-02-03T17:14:05.512Z,1.40
2019-02-03T17:16:33.159Z,1.40
2019-02-03T17:19:00.791Z,1.40
2019-02-03T17:21:28.434Z,1.40
2019-02-03T17:23:56.066Z,1.40
2019-02-03T17:26:23.718Z,1.40
2019-02-03T17:28:52.171Z,1.40
2019-02-03T17:31:19.836Z,1.40
2019-02-03T17:33:47.458Z,1.40
2019-02-03T17:36:15.479Z,1.40
2019-02-03T17:38:43.114Z,1.40
2019-02-03T17:41:10.754Z,1.40
2019-02-03T17:43:38.381Z,1.40
2019-02-03T17:46:06.099Z,1.50
2019-02-03T17:48:33.726Z,1.50
2019-02-03T17:51:01.383Z,1.50
2019-02-03T17:53:36.697Z,1.40
2019-02-03T17:56:04.706Z,1.40
2019-02-03T17:58:32.338Z,1.40
2019-02-03T18:01:01.687Z,1.30
2019-02-03T18:03:29.330Z,1.40
2019-02-03T18:08:24.812Z,1.50
2019-02-03T18:10:52.440Z,1.30
2019-02-03T18:13:20.085Z,1.30
2019-02-03T18:15:47.711Z,1.30
2019-02-03T18:18:15.360Z,1.30
2019-02-03T18:20:42.987Z,1.30
2019-02-03T18:23:10.639Z,1.30
2019-02-03T18:25:38.263Z,1.30
2019-02-03T18:28:05.902Z,1.30
2019-02-03T18:30:34.705Z,1.30
2019-02-03T18:33:02.419Z,1.30
2019-02-03T18:35:30.116Z,1.30
2019-02-03T18:37:59.535Z,1.40
2019-02-03T18:40:27.170Z,1.40
2019-02-03T18:43:01.967Z,1.30
2019-02-03T18:45:29.123Z,1.30
2019-02-03T18:47:56.765Z,1.30
2019-02-03T18:50:24.385Z,1.40
2019-02-03T18:52:52.674Z,1.40
2019-02-03T18:55:21.858Z,1.40
2019-02-03T18:57:49.563Z,1.30
2019-02-03T19:00:23.954Z,1.40
2019-02-03T19:02:51.595Z,1.30
2019-02-03T19:05:20.306Z,1.30
2019-02-03T19:07:48.098Z,1.30
2019-02-03T19:10:17.105Z,1.30
2019-02-03T19:12:44.739Z,1.20
2019-02-03T19:15:13.151Z,1.30
2019-02-03T19:17:40.778Z,1.30
2019-02-03T19:20:09.968Z,1.30
2019-02-03T19:22:38.523Z,1.30
2019-02-03T19:25:07.031Z,1.30
2019-02-03T19:27:34.658Z,1.40
2019-02-03T19:30:02.307Z,1.30
2019-02-03T19:32:29.938Z,1.40
2019-02-03T19:34:57.589Z,1.40
2019-02-03T19:37:25.708Z,1.40
2019-02-03T19:39:53.510Z,1.30
2019-02-03T19:42:21.137Z,1.40
2019-02-03T19:44:58.140Z,1.30
2019-02-03T19:47:18.122Z,1.40
2019-02-03T19:49:46.598Z,1.40
2019-02-03T19:52:15.128Z,1.30
2019-02-03T19:54:42.771Z,1.40
2019-02-03T19:57:10.403Z,1.40
2019-02-03T19:59:46.591Z,1.30
2019-02-03T20:02:07.394Z,1.30
2019-02-03T20:04:35.051Z,1.20
2019-02-03T20:07:02.691Z,1.30
2019-02-03T20:09:30.364Z,1.30
2019-02-03T20:11:58.026Z,1.30
2019-02-03T20:14:25.683Z,1.40
2019-02-03T20:16:53.383Z,1.30
2019-02-03T20:19:21.016Z,1.20
2019-02-03T20:21:48.660Z,1.20
2019-02-03T20:24:16.775Z,1.20
2019-02-03T20:26:44.431Z,1.20
2019-02-03T20:29:12.063Z,1.20
2019-02-03T20:31:39.698Z,1.10
2019-02-03T20:34:07.408Z,1.10
2019-02-03T20:36:35.050Z,1.10
2019-02-03T20:39:02.728Z,1.10
2019-02-03T20:41:30.562Z,1.10
2019-02-03T20:43:58.215Z,1.10
2019-02-03T20:46:25.916Z,1.00
2019-02-03T20:48:53.556Z,1.10
2019-02-03T20:51:21.271Z,1.00
2019-02-03T20:53:52.028Z,1.00
2019-02-03T20:56:20.051Z,1.00
2019-02-03T20:58:47.679Z,1.10
2019-02-03T21:01:15.380Z,1.00
2019-02-03T21:03:43.003Z,1.00
2019-02-03T21:06:10.640Z,1.00
2019-02-03T21:08:38.282Z,1.00
2019-02-03T21:11:05.909Z,1.00
2019-02-03T21:13:34.031Z,1.00
2019-02-03T21:16:01.659Z,1.10
2019-02-03T21:18:29.299Z,1.10
2019-02-03T21:20:56.926Z,1.00
2019-02-03T21:23:24.570Z,1.10
2019-02-03T21:25:52.274Z,1.10
2019-02-03T21:28:19.926Z,1.00
2019-02-03T21:30:47.555Z,1.10
2019-02-03T21:33:15.201Z,1.10
2019-02-03T21:35:42.833Z,1.10
2019-02-03T21:38:10.474Z,1.10
2019-02-03T21:40:38.109Z,1.10
2019-02-03T21:43:05.826Z,1.20
2019-02-03T21:45:43.895Z,1.20
2019-02-03T21:48:04.661Z,1.20
2019-02-03T21:50:32.359Z,1.30
2019-02-03T21:53:00.061Z,1.20
2019-02-03T21:55:27.820Z,1.30
2019-02-03T21:57:55.858Z,1.20
2019-02-03T22:00:28.286Z,1.20
2019-02-03T22:02:55.995Z,1.30
2019-02-03T22:05:23.633Z,1.20
2019-02-03T22:07:51.254Z,1.20
2019-02-03T22:10:20.085Z,1.20
2019-02-03T22:12:48.779Z,1.20
2019-02-03T22:15:16.794Z,1.20
2019-02-03T22:17:44.423Z,1.20
2019-02-03T22:20:13.603Z,1.20
2019-02-03T22:22:43.203Z,1.30
2019-02-03T22:25:10.910Z,1.30
2019-02-03T22:27:38.542Z,1.20
2019-02-03T22:30:14.609Z,1.30
2019-02-03T22:32:51.367Z,1.20
2019-02-03T22:35:19.005Z,1.20
2019-02-03T22:37:46.630Z,1.20
2019-02-03T22:40:18.117Z,1.20
2019-02-03T22:42:46.723Z,1.20
2019-02-03T22:45:15.927Z,1.20
2019-02-03T22:47:43.582Z,1.20
2019-02-03T22:50:12.895Z,1.20
2019-02-03T22:52:41.465Z,1.20
2019-02-03T22:55:10.072Z,1.30
2019-02-03T22:57:37.706Z,1.20
2019-02-03T23:00:14.270Z,1.30
2019-02-03T23:02:42.864Z,1.30
2019-02-03T23:05:10.699Z,1.30
2019-02-03T23:07:38.327Z,1.30
2019-02-03T23:10:07.935Z,1.30
2019-02-03T23:12:35.569Z,1.20
2019-02-03T23:15:03.375Z,1.20
2019-02-03T23:17:31.014Z,1.10
2019-02-03T23:19:58.650Z,1.10
2019-02-03T23:22:29.514Z,1.10
2019-02-03T23:24:57.614Z,1.10
2019-02-03T23:27:25.254Z,1.10
2019-02-03T23:29:55.111Z,1.10
2019-02-03T23:32:22.242Z,1.00
2019-02-03T23:34:49.874Z,1.00
2019-02-03T23:37:17.655Z,0.90
2019-02-03T23:39:45.282Z,0.90
2019-02-03T23:42:12.930Z,0.90
2019-02-03T23:44:40.562Z,1.00
2019-02-03T23:47:08.203Z,1.00
2019-02-03T23:49:35.829Z,1.00
2019-02-03T23:52:03.483Z,1.10
2019-02-03T23:54:35.218Z,1.10
2019-02-03T23:57:03.145Z,1.10
2019-02-03T23:59:30.759Z,1.10
